Terminal Aerodrome Forecast
Issued by NWS

Home | Current Version | Previous Version | Text Only | Print | Product List | Glossary On
Versions: 1 2 3 4 5 6 7 8 9 10 11 12 13 14 15 16
000
FTAK31 PAJN 251700
TAFAYA
TAF
PAYA 251738Z 2518/2618 VRB06KT 6SM -SHRA SCT020 OVC040
      TEMPO 2518/2522 25010KT 4SM -SHRA BKN020 OVC040
     FM252200 24008KT P6SM -SHRA SCT015 BKN030 OVC040
     FM260300 VRB06KT P6SM VCSH SCT030 OVC050
     FM260900 11005KT P6SM VCSH SCT030 BKN050
     FM261200 07010KT P6SM VCSH BKN050
      AMD LTD TO CLD VIS AND WIND 2601/2610=

USA.gov is the U.S. government's official web portal to all federal, state and local government web resources and services.